Time;durP1;ratioP1;P1;durP2;ratioP2;P2;SDS_P1;SDS_P2;PMS_P1;PMS_P2;Temp;Humidity;BMP_temperature;BMP_pressure;BME280_temperature;BME280_humidity;BME280_pressure;Samples;Min_cycle;Max_cycle;Signal;HPM_P1;HPM_P2
2021/01/18 00:00:35;;;;;;;168.67;57.17;;;-13.50;83.30;;;;;;4996313;28;20512;-81
2021/01/18 00:03:05;;;;;;;166.50;56.73;;;-13.50;83.70;;;;;;4995915;28;20113;-81
2021/01/18 00:05:31;;;;;;;172.00;57.10;;;-13.50;83.50;;;;;;4995893;28;20061;-82
2021/01/18 00:07:56;;;;;;;181.17;56.03;;;-13.50;83.00;;;;;;4997411;28;20034;-82
2021/01/18 00:10:23;;;;;;;158.13;51.13;;;-13.50;82.50;;;;;;4997118;28;20510;-82
2021/01/18 00:12:54;;;;;;;173.77;61.97;;;-13.40;82.70;;;;;;4997153;28;20038;-81
2021/01/18 00:15:21;;;;;;;193.37;60.77;;;-13.40;83.30;;;;;;4995761;28;20023;-82
2021/01/18 00:17:47;;;;;;;187.17;57.43;;;-13.30;83.50;;;;;;4995624;28;20045;-81
2021/01/18 00:20:15;;;;;;;164.07;54.53;;;-13.30;82.70;;;;;;4995561;28;20022;-81
2021/01/18 00:22:42;;;;;;;204.30;61.97;;;-13.30;83.00;;;;;;4996432;28;20018;-81
2021/01/18 00:25:08;;;;;;;165.10;55.50;;;-13.30;83.20;;;;;;4995484;28;20019;-81
2021/01/18 00:27:35;;;;;;;184.00;58.70;;;-13.30;83.50;;;;;;4995523;28;20090;-81
2021/01/18 00:30:00;;;;;;;171.73;59.23;;;-13.30;83.60;;;;;;4995354;28;20439;-80
2021/01/18 00:32:26;;;;;;;189.50;53.73;;;-13.30;84.10;;;;;;4995835;28;20045;-80
2021/01/18 00:34:52;;;;;;;164.33;54.67;;;-13.20;84.60;;;;;;4996552;28;20026;-81
2021/01/18 00:37:18;;;;;;;181.83;53.70;;;-13.20;85.30;;;;;;4996502;28;20122;-81
2021/01/18 00:39:44;;;;;;;157.20;51.93;;;-13.10;86.20;;;;;;4995288;28;20089;-81
2021/01/18 00:42:16;;;;;;;140.50;48.27;;;-13.10;86.60;;;;;;4995235;28;20431;-81
2021/01/18 00:44:41;;;;;;;138.85;49.95;;;-13.10;86.60;;;;;;4995333;28;20121;-81
2021/01/18 00:47:07;;;;;;;117.47;44.90;;;-13.10;86.60;;;;;;4996455;28;20077;-81
2021/01/18 00:49:33;;;;;;;140.23;47.80;;;-13.00;86.80;;;;;;4995119;28;20421;-81
2021/01/18 00:51:58;;;;;;;129.13;42.10;;;-13.00;87.30;;;;;;4996117;28;20046;-82
2021/01/18 00:54:24;;;;;;;127.60;42.77;;;-13.00;88.10;;;;;;4995281;28;20113;-81
2021/01/18 00:56:50;;;;;;;126.70;43.60;;;-12.90;88.70;;;;;;4996500;28;20487;-82
2021/01/18 00:59:17;;;;;;;113.13;36.77;;;-13.00;88.60;;;;;;4994405;28;20038;-81
2021/01/18 01:01:42;;;;;;;93.53;32.13;;;-12.90;89.00;;;;;;4994965;28;20052;-81
2021/01/18 01:04:08;;;;;;;93.37;31.73;;;-12.90;89.10;;;;;;4994776;28;20109;-81
2021/01/18 01:06:34;;;;;;;101.73;30.93;;;-12.90;88.50;;;;;;4994599;28;20112;-81
2021/01/18 01:09:00;;;;;;;114.43;35.03;;;-12.90;89.00;;;;;;4997788;28;20033;-82
2021/01/18 01:11:26;;;;;;;110.30;35.70;;;-12.80;90.00;;;;;;5014284;28;20025;-81
2021/01/18 01:13:52;;;;;;;87.40;31.07;;;-12.80;90.70;;;;;;5014243;28;20041;-81
2021/01/18 01:16:18;;;;;;;99.83;31.47;;;-12.80;90.80;;;;;;5015437;28;20080;-81
2021/01/18 01:18:43;;;;;;;96.67;33.53;;;-12.70;91.60;;;;;;5030519;28;20026;-81
2021/01/18 01:21:09;;;;;;;102.37;31.07;;;-12.70;92.60;;;;;;5009755;28;20053;-81
2021/01/18 01:23:35;;;;;;;89.83;32.33;;;-12.60;92.30;;;;;;4994833;28;20025;-81
2021/01/18 01:26:01;;;;;;;109.47;32.60;;;-12.60;92.40;;;;;;4994483;28;20026;-81
2021/01/18 01:28:27;;;;;;;99.00;33.80;;;-12.70;92.00;;;;;;4995620;28;20027;-81
2021/01/18 01:30:53;;;;;;;99.67;33.27;;;-12.70;92.00;;;;;;4994313;28;20388;-81
2021/01/18 01:33:18;;;;;;;85.17;30.67;;;-12.70;91.90;;;;;;4995491;28;20436;-82
2021/01/18 01:35:44;;;;;;;101.87;34.03;;;-12.80;92.20;;;;;;4995287;28;20487;-82
2021/01/18 01:38:10;;;;;;;92.33;30.73;;;-12.80;92.70;;;;;;4994052;28;20030;-82
2021/01/18 01:40:36;;;;;;;103.10;33.40;;;-12.70;93.60;;;;;;4995436;28;20026;-82
2021/01/18 01:43:03;;;;;;;97.60;31.00;;;-12.70;92.90;;;;;;4994121;28;20079;-82
2021/01/18 01:45:28;;;;;;;100.97;33.10;;;-12.80;92.30;;;;;;4994114;28;20072;-82
2021/01/18 01:47:56;;;;;;;109.97;35.53;;;-12.80;92.20;;;;;;4993999;28;20500;-82
2021/01/18 01:50:37;;;;;;;108.20;34.87;;;-12.90;92.20;;;;;;4995309;28;20053;-82
2021/01/18 01:53:14;;;;;;;129.47;39.33;;;-12.90;92.70;;;;;;4995191;28;20483;-81
2021/01/18 01:55:40;;;;;;;102.67;34.57;;;-12.90;93.30;;;;;;4993931;28;20121;-81
2021/01/18 01:58:07;;;;;;;109.93;36.47;;;-12.80;93.50;;;;;;4993767;28;20045;-81
2021/01/18 02:00:36;;;;;;;119.40;36.27;;;-12.90;92.70;;;;;;4993863;28;20022;-82
2021/01/18 02:03:20;;;;;;;114.87;38.07;;;-12.80;92.50;;;;;;4995044;28;20026;-81
2021/01/18 02:05:47;;;;;;;116.13;39.60;;;-12.70;93.00;;;;;;4993451;28;20403;-82
2021/01/18 02:08:13;;;;;;;118.37;41.63;;;-12.70;92.70;;;;;;4993725;28;20037;-81
2021/01/18 02:10:39;;;;;;;113.53;38.57;;;-12.70;92.50;;;;;;4990255;28;20035;-82
2021/01/18 02:13:39;;;;;;;119.57;38.27;;;-12.70;92.90;;;;;;4975337;28;20066;-81
2021/01/18 02:16:26;;;;;;;118.13;34.63;;;-12.70;91.50;;;;;;4976950;28;20396;-81
2021/01/18 02:18:54;;;;;;;111.93;37.47;;;-12.70;90.40;;;;;;4974748;28;20034;-81
2021/01/18 02:21:48;;;;;;;128.50;42.33;;;-12.80;89.60;;;;;;4975189;28;20026;-81
2021/01/18 02:24:20;;;;;;;126.07;40.80;;;-12.80;88.80;;;;;;4969714;28;20591;-82
2021/01/18 02:27:13;;;;;;;124.60;38.05;;;-12.90;89.00;;;;;;4973900;28;20066;-81
2021/01/18 02:30:23;;;;;;;135.67;40.87;;;-13.00;89.00;;;;;;4976165;28;20042;-82
2021/01/18 02:33:19;;;;;;;115.80;37.70;;;-13.00;88.60;;;;;;4974719;28;20051;-81
2021/01/18 02:35:51;;;;;;;122.27;37.43;;;-13.00;88.60;;;;;;4975082;28;20113;-81
2021/01/18 02:38:35;;;;;;;120.73;39.87;;;-13.00;88.60;;;;;;5003428;28;20065;-81
2021/01/18 02:41:01;;;;;;;118.23;39.47;;;-13.00;88.10;;;;;;4993180;28;20062;-81
2021/01/18 02:43:50;;;;;;;120.90;38.37;;;-13.00;87.70;;;;;;4993013;28;20507;-81
2021/01/18 02:46:18;;;;;;;106.10;37.63;;;-13.10;87.10;;;;;;4992966;28;20058;-81
2021/01/18 02:48:45;;;;;;;116.50;40.97;;;-13.10;87.20;;;;;;4994249;28;20019;-81
2021/01/18 02:51:16;;;;;;;120.53;39.03;;;-13.20;86.60;;;;;;4992866;28;20025;-81
2021/01/18 02:53:54;;;;;;;117.67;39.57;;;-13.20;86.70;;;;;;4992949;28;20029;-81
2021/01/18 02:56:20;;;;;;;110.43;37.77;;;-13.30;86.50;;;;;;4992636;28;20073;-81
2021/01/18 02:58:47;;;;;;;128.17;39.10;;;-13.30;86.30;;;;;;4993191;28;20084;-81
2021/01/18 03:01:38;;;;;;;125.50;42.20;;;-13.30;85.90;;;;;;4992350;28;20121;-82
2021/01/18 03:04:08;;;;;;;111.03;36.77;;;-13.30;85.70;;;;;;4992596;28;20062;-81
2021/01/18 03:06:54;;;;;;;115.83;35.00;;;-13.30;85.50;;;;;;4992681;28;20022;-81
2021/01/18 03:09:26;;;;;;;107.87;37.87;;;-13.50;85.20;;;;;;4992607;28;20109;-81
2021/01/18 03:11:57;;;;;;;123.03;39.43;;;-13.50;84.80;;;;;;4992663;28;20084;-82
2021/01/18 03:14:29;;;;;;;115.10;37.57;;;-13.60;84.40;;;;;;4993833;28;20022;-81
2021/01/18 03:16:57;;;;;;;132.88;39.72;;;-13.70;84.50;;;;;;4992486;28;20039;-81
2021/01/18 03:19:56;;;;;;;111.60;36.70;;;-13.70;85.00;;;;;;4992402;28;20025;-81
2021/01/18 03:22:23;;;;;;;111.00;36.37;;;-13.70;84.80;;;;;;4981549;28;20419;-81
2021/01/18 03:24:49;;;;;;;118.67;38.63;;;-13.70;85.00;;;;;;4993745;28;20022;-81
2021/01/18 03:27:15;;;;;;;128.03;39.40;;;-13.80;84.60;;;;;;4992324;28;20109;-80
2021/01/18 03:29:41;;;;;;;116.90;37.83;;;-13.80;83.20;;;;;;4992352;28;20124;-81
2021/01/18 03:32:07;;;;;;;93.37;35.50;;;-13.90;83.00;;;;;;4992271;28;20568;-82
2021/01/18 03:34:33;;;;;;;115.17;36.80;;;-13.90;83.80;;;;;;4992170;28;20491;-81
2021/01/18 03:36:59;;;;;;;116.27;36.57;;;-13.90;84.10;;;;;;4991885;28;20042;-81
2021/01/18 03:39:25;;;;;;;98.40;35.27;;;-14.00;82.50;;;;;;4992169;28;20438;-80
2021/01/18 03:41:50;;;;;;;108.43;38.27;;;-14.00;81.70;;;;;;4992148;28;20023;-80
2021/01/18 03:44:16;;;;;;;109.67;35.43;;;-14.00;82.10;;;;;;4992123;28;20388;-81
2021/01/18 03:46:45;;;;;;;105.10;34.93;;;-14.00;82.90;;;;;;4993521;28;20026;-81
2021/01/18 03:49:12;;;;;;;118.90;41.27;;;-14.00;84.20;;;;;;4993374;28;20487;-81
2021/01/18 03:51:38;;;;;;;115.93;37.30;;;-13.90;84.10;;;;;;4992149;28;20491;-81
2021/01/18 03:54:05;;;;;;;99.23;35.03;;;-13.90;84.20;;;;;;4992064;28;20109;-81
2021/01/18 03:56:30;;;;;;;96.07;32.53;;;-13.90;84.40;;;;;;4992120;28;20062;-81
2021/01/18 03:58:56;;;;;;;89.70;32.00;;;-13.90;84.20;;;;;;4991952;28;20101;-81
2021/01/18 04:01:22;;;;;;;92.27;33.27;;;-13.90;84.20;;;;;;4992022;28;20027;-82
2021/01/18 04:03:47;;;;;;;92.40;31.63;;;-13.90;83.90;;;;;;4992998;28;20105;-81
2021/01/18 04:06:13;;;;;;;106.97;35.77;;;-13.90;83.80;;;;;;4986865;28;20097;-81
2021/01/18 04:08:39;;;;;;;89.47;30.33;;;-13.90;83.10;;;;;;4973940;28;20058;-81
2021/01/18 04:11:04;;;;;;;101.70;32.70;;;-14.00;82.20;;;;;;4973788;28;20536;-81
2021/01/18 04:13:30;;;;;;;84.97;28.53;;;-14.00;81.80;;;;;;4972455;28;20110;-81
2021/01/18 04:15:56;;;;;;;108.67;34.83;;;-14.10;81.10;;;;;;4973845;28;20098;-81
2021/01/18 04:18:22;;;;;;;87.73;32.83;;;-14.10;81.30;;;;;;4983996;28;20431;-81
2021/01/18 04:20:48;;;;;;;98.07;35.00;;;-14.10;81.70;;;;;;4991935;28;20022;-81
2021/01/18 04:23:13;;;;;;;99.97;31.23;;;-14.20;81.00;;;;;;4991942;28;20419;-81
2021/01/18 04:25:39;;;;;;;88.50;30.47;;;-14.30;79.70;;;;;;4993078;28;20034;-82
2021/01/18 04:28:06;;;;;;;90.13;30.83;;;-14.40;79.30;;;;;;4991757;28;20028;-82
2021/01/18 04:30:34;;;;;;;99.87;27.37;;;-14.50;78.40;;;;;;5002432;28;20061;-81
2021/01/18 04:33:06;;;;;;;93.00;29.53;;;-14.60;77.70;;;;;;4996673;28;20113;-81
2021/01/18 04:35:37;;;;;;;91.47;28.83;;;-14.70;77.00;;;;;;4991805;28;20462;-81
2021/01/18 04:38:04;;;;;;;83.80;27.83;;;-14.80;76.40;;;;;;4991583;28;20134;-80
2021/01/18 04:40:31;;;;;;;87.10;28.37;;;-14.90;75.50;;;;;;4992032;28;20113;-81
2021/01/18 04:42:57;;;;;;;85.07;28.57;;;-14.90;75.80;;;;;;4982297;28;20388;-81
2021/01/18 04:45:25;;;;;;;105.87;36.57;;;-15.00;75.80;;;;;;4975340;28;20030;-80
2021/01/18 04:47:53;;;;;;;96.47;30.50;;;-15.00;76.20;;;;;;4956796;28;20496;-80
2021/01/18 04:50:20;;;;;;;94.73;30.33;;;-15.00;76.80;;;;;;4994372;28;20049;-80
2021/01/18 04:52:51;;;;;;;91.70;29.80;;;-15.00;76.60;;;;;;4983714;28;20065;-81
2021/01/18 04:55:30;;;;;;;109.10;30.57;;;-15.10;76.40;;;;;;4989467;28;20026;-81
2021/01/18 04:58:12;;;;;;;97.43;28.53;;;-15.10;76.90;;;;;;5010611;28;20085;-81
2021/01/18 05:00:49;;;;;;;69.68;20.42;;;-15.20;75.40;;;;;;4995013;28;20069;-80
2021/01/18 05:03:20;;;;;;;87.97;27.40;;;-15.20;74.90;;;;;;4989183;28;20420;-80
2021/01/18 05:05:52;;;;;;;85.90;30.53;;;-15.30;74.90;;;;;;4991600;28;20022;-80
2021/01/18 05:08:33;;;;;;;90.47;29.48;;;-15.30;75.00;;;;;;4975297;28;20035;-80
2021/01/18 05:11:00;;;;;;;80.33;33.40;;;-15.40;74.80;;;;;;4990501;28;20049;-80
2021/01/18 05:13:26;;;;;;;79.00;28.50;;;-15.50;74.00;;;;;;4994659;28;20022;-80
2021/01/18 05:15:54;;;;;;;81.20;27.47;;;-15.60;75.20;;;;;;4996020;28;20237;-80
2021/01/18 05:18:30;;;;;;;86.77;28.30;;;-15.50;76.30;;;;;;4994444;28;20396;-79
2021/01/18 05:20:56;;;;;;;92.93;29.63;;;-15.60;77.10;;;;;;4995651;28;20551;-80
2021/01/18 05:23:22;;;;;;;97.83;30.70;;;-15.60;76.50;;;;;;4995344;28;20161;-80
2021/01/18 05:25:47;;;;;;;94.67;34.10;;;-15.60;75.80;;;;;;4994527;28;20046;-81
2021/01/18 05:28:13;;;;;;;107.93;33.20;;;-15.60;76.00;;;;;;4980751;28;20023;-80
2021/01/18 05:30:42;;;;;;;99.23;30.17;;;-15.60;76.00;;;;;;4976288;28;20507;-80
2021/01/18 05:33:13;;;;;;;97.07;33.73;;;-15.70;75.60;;;;;;4974587;28;20054;-80
2021/01/18 05:35:49;;;;;;;71.13;23.13;;;-15.70;75.70;;;;;;4976308;28;20022;-80
2021/01/18 05:38:16;;;;;;;86.17;32.50;;;-15.80;75.40;;;;;;4976028;28;20105;-80
2021/01/18 05:40:45;;;;;;;85.70;28.90;;;-15.80;75.60;;;;;;4974046;28;20122;-80
2021/01/18 05:43:13;;;;;;;93.00;28.57;;;-15.80;75.30;;;;;;4974380;28;20085;-80
2021/01/18 05:45:41;;;;;;;82.77;30.20;;;-15.90;74.80;;;;;;4993578;28;20024;-80
2021/01/18 05:48:09;;;;;;;103.77;32.07;;;-15.90;74.60;;;;;;4995207;28;20126;-80
2021/01/18 05:50:36;;;;;;;109.53;34.47;;;-16.00;74.20;;;;;;4993378;28;20380;-80
2021/01/18 05:53:22;;;;;;;104.50;35.70;;;-16.00;73.90;;;;;;4992601;28;20022;-80
2021/01/18 05:55:48;;;;;;;108.17;33.53;;;-16.10;74.50;;;;;;4993735;28;20034;-80
2021/01/18 05:58:30;;;;;;;100.47;34.87;;;-16.20;73.40;;;;;;4981105;28;20034;-80
2021/01/18 06:00:57;;;;;;;105.83;38.00;;;-16.20;73.70;;;;;;4974500;28;20023;-80
2021/01/18 06:03:30;;;;;;;141.00;43.47;;;-16.30;74.00;;;;;;4974366;28;20027;-80
2021/01/18 06:05:57;;;;;;;121.90;37.57;;;-16.30;74.00;;;;;;4974328;28;20085;-80
2021/01/18 06:08:24;;;;;;;121.00;40.53;;;-16.20;74.30;;;;;;4974194;28;20034;-80
2021/01/18 06:10:56;;;;;;;99.03;36.37;;;-16.20;74.20;;;;;;4980330;28;20019;-80
2021/01/18 06:13:24;;;;;;;125.53;38.67;;;-16.20;73.50;;;;;;4993290;28;20372;-80
2021/01/18 06:16:10;;;;;;;93.00;32.93;;;-16.30;72.40;;;;;;4994891;28;20054;-80
2021/01/18 06:18:45;;;;;;;69.73;25.00;;;-16.40;71.90;;;;;;5009721;28;20037;-80
2021/01/18 06:21:12;;;;;;;58.20;20.60;;;-16.40;72.40;;;;;;4993430;28;20026;-80
2021/01/18 06:23:40;;;;;;;74.57;23.50;;;-16.50;72.10;;;;;;4994321;28;20018;-81
2021/01/18 06:26:06;;;;;;;57.07;23.43;;;-16.50;72.30;;;;;;4986697;28;20049;-80
2021/01/18 06:28:39;;;;;;;76.80;22.13;;;-16.50;72.00;;;;;;4994812;28;20026;-80
2021/01/18 06:31:06;;;;;;;101.70;29.53;;;-16.60;72.40;;;;;;4994376;28;20574;-79
2021/01/18 06:33:46;;;;;;;84.83;29.57;;;-16.60;73.10;;;;;;4993102;28;20061;-80
2021/01/18 06:36:16;;;;;;;89.57;31.90;;;-16.60;73.00;;;;;;4994299;28;20484;-80
2021/01/18 06:38:50;;;;;;;116.03;37.53;;;-16.60;73.00;;;;;;4993063;28;20045;-80
2021/01/18 06:41:22;;;;;;;118.30;41.43;;;-16.50;75.00;;;;;;4933393;28;20034;-80
2021/01/18 06:43:49;;;;;;;107.10;35.73;;;-16.50;74.40;;;;;;4985759;28;20030;-80
2021/01/18 06:46:16;;;;;;;122.30;43.73;;;-16.50;75.70;;;;;;4974401;28;20027;-80
2021/01/18 06:48:45;;;;;;;119.97;39.57;;;-16.50;77.30;;;;;;4990263;28;20034;-80
2021/01/18 06:51:14;;;;;;;128.73;39.63;;;-16.40;78.20;;;;;;4988391;28;20035;-80
2021/01/18 06:53:42;;;;;;;106.47;34.73;;;-16.50;76.20;;;;;;4991673;28;20040;-79
2021/01/18 06:56:23;;;;;;;130.87;43.30;;;-16.50;76.00;;;;;;4931507;28;20070;-80
2021/01/18 06:58:56;;;;;;;95.97;35.97;;;-16.50;76.40;;;;;;4988478;28;20109;-80
2021/01/18 07:01:29;;;;;;;97.27;31.97;;;-16.50;76.50;;;;;;5001748;28;20029;-80
2021/01/18 07:04:00;;;;;;;126.67;42.50;;;-16.50;76.90;;;;;;4969949;28;20516;-79
2021/01/18 07:06:37;;;;;;;148.10;45.57;;;-16.50;76.20;;;;;;4993660;28;20085;-82
2021/01/18 07:09:14;;;;;;;93.43;34.90;;;-16.50;76.30;;;;;;4994773;28;20026;-79
2021/01/18 07:11:40;;;;;;;135.73;48.23;;;-16.30;75.50;;;;;;4999635;28;20030;-80
2021/01/18 07:14:08;;;;;;;167.27;50.90;;;-16.30;74.50;;;;;;5000390;28;20428;-80
2021/01/18 07:16:35;;;;;;;131.77;42.97;;;-16.10;74.10;;;;;;4999464;28;20038;-80
2021/01/18 07:19:03;;;;;;;134.50;42.53;;;-16.10;73.30;;;;;;4998048;28;20376;-79
2021/01/18 07:21:47;;;;;;;108.63;39.83;;;-16.00;72.70;;;;;;5003166;28;20021;-80
2021/01/18 07:24:15;;;;;;;65.97;25.30;;;-15.90;72.70;;;;;;4996853;28;20018;-79
2021/01/18 07:27:04;;;;;;;63.77;25.67;;;-15.80;71.10;;;;;;5001346;28;20014;-79
2021/01/18 07:29:32;;;;;;;72.97;26.23;;;-15.80;70.20;;;;;;5001749;28;20022;-80
2021/01/18 07:31:59;;;;;;;81.53;31.00;;;-15.70;69.00;;;;;;4992323;28;20018;-80
2021/01/18 07:34:27;;;;;;;100.43;35.90;;;-15.70;69.10;;;;;;4992419;28;20033;-80
2021/01/18 07:37:14;;;;;;;106.93;38.67;;;-15.60;69.80;;;;;;5000933;28;20038;-80
2021/01/18 07:39:41;;;;;;;130.03;38.30;;;-15.50;70.10;;;;;;5002370;28;20095;-80
2021/01/18 07:42:32;;;;;;;145.80;44.10;;;-15.40;70.40;;;;;;5013546;28;20029;-81
2021/01/18 07:45:17;;;;;;;133.17;42.27;;;-15.30;70.50;;;;;;5019398;28;20057;-80
2021/01/18 07:48:01;;;;;;;201.77;57.63;;;-15.20;69.90;;;;;;4992908;28;20030;-81
2021/01/18 07:50:43;;;;;;;167.63;52.23;;;-15.10;70.40;;;;;;4998709;28;20070;-81
2021/01/18 07:53:11;;;;;;;180.98;54.92;;;-14.90;70.80;;;;;;4993642;28;20439;-80
2021/01/18 07:55:38;;;;;;;267.70;81.17;;;-14.80;71.00;;;;;;5006397;28;20030;-81
2021/01/18 07:58:21;;;;;;;316.30;101.63;;;-14.60;71.00;;;;;;4995416;28;20053;-81
2021/01/18 08:00:50;;;;;;;223.23;73.03;;;-14.50;70.80;;;;;;4988389;28;20030;-82
2021/01/18 08:03:21;;;;;;;234.13;77.10;;;-14.30;70.90;;;;;;5007748;28;20114;-81
2021/01/18 08:05:47;;;;;;;158.97;50.50;;;-14.20;70.50;;;;;;4992200;28;20033;-81
2021/01/18 08:08:18;;;;;;;141.30;48.17;;;-14.20;68.80;;;;;;4992416;28;20031;-81
2021/01/18 08:11:07;;;;;;;148.13;45.60;;;-14.20;67.60;;;;;;4992445;28;20369;-81
2021/01/18 08:13:53;;;;;;;176.63;55.83;;;-14.10;68.30;;;;;;4991234;28;20438;-81
2021/01/18 08:16:38;;;;;;;172.23;54.73;;;-13.90;67.50;;;;;;4994095;28;20018;-80
2021/01/18 08:19:10;;;;;;;254.97;77.53;;;-13.70;66.50;;;;;;4994897;28;20487;-80
2021/01/18 08:21:35;;;;;;;273.85;88.97;;;-13.40;66.60;;;;;;4994911;28;20399;-81
2021/01/18 08:24:11;;;;;;;335.60;100.17;;;-13.20;66.70;;;;;;4996114;28;20027;-80
2021/01/18 08:27:05;;;;;;;316.43;97.07;;;-13.00;66.10;;;;;;4996398;28;20029;-80
2021/01/18 08:29:44;;;;;;;267.40;81.07;;;-12.80;65.50;;;;;;5007447;28;20076;-80
2021/01/18 08:32:30;;;;;;;287.73;87.73;;;-12.70;65.40;;;;;;5014096;28;20638;-81
2021/01/18 08:35:07;;;;;;;338.50;99.33;;;-12.60;64.50;;;;;;5010339;28;20033;-80
2021/01/18 08:37:36;;;;;;;326.40;98.13;;;-12.60;64.00;;;;;;4976047;28;20038;-80
2021/01/18 08:40:14;;;;;;;332.93;110.70;;;-12.60;63.50;;;;;;4977313;28;20038;-80
2021/01/18 08:42:41;;;;;;;222.40;74.67;;;-12.60;63.70;;;;;;4975885;28;20058;-81
2021/01/18 08:45:07;;;;;;;172.27;58.10;;;-12.60;63.80;;;;;;4986234;28;20464;-81
2021/01/18 08:47:45;;;;;;;167.90;58.67;;;-12.60;63.40;;;;;;5000269;28;20038;-81
2021/01/18 08:50:44;;;;;;;171.27;61.63;;;-12.70;63.60;;;;;;4995861;28;20018;-81
2021/01/18 08:53:29;;;;;;;186.27;62.07;;;-12.60;64.30;;;;;;5010856;28;20030;-80
2021/01/18 08:56:01;;;;;;;292.87;90.93;;;-12.50;64.90;;;;;;5001481;28;20021;-80
2021/01/18 08:58:44;;;;;;;744.13;271.63;;;-12.60;65.20;;;;;;5010785;28;20046;-80
2021/01/18 09:01:19;;;;;;;584.55;219.27;;;-12.60;66.10;;;;;;5009905;28;20022;-81
2021/01/18 09:03:46;;;;;;;528.17;196.00;;;-12.50;68.00;;;;;;5009362;28;20030;-81
2021/01/18 09:06:12;;;;;;;388.10;142.43;;;-12.40;69.50;;;;;;4997064;28;20030;-81
2021/01/18 09:08:41;;;;;;;246.70;93.33;;;-12.30;70.40;;;;;;4995053;28;20488;-81
2021/01/18 09:11:09;;;;;;;171.27;63.57;;;-12.20;71.10;;;;;;4994780;28;20088;-80
2021/01/18 09:13:39;;;;;;;166.77;60.57;;;-12.10;72.00;;;;;;4994722;28;20023;-81
2021/01/18 09:16:10;;;;;;;171.47;59.93;;;-12.10;73.80;;;;;;4994427;28;20026;-81
2021/01/18 09:18:36;;;;;;;159.40;61.50;;;-11.80;74.30;;;;;;4975527;28;20046;-81
2021/01/18 09:21:07;;;;;;;133.70;47.73;;;-11.60;74.10;;;;;;4975126;28;20030;-81
2021/01/18 09:23:32;;;;;;;97.07;36.53;;;-11.40;75.40;;;;;;4975286;28;20027;-80
2021/01/18 09:26:13;;;;;;;103.30;36.73;;;-11.20;76.60;;;;;;4978714;28;20105;-81
2021/01/18 09:28:55;;;;;;;111.13;40.23;;;-11.00;76.60;;;;;;5002468;28;20072;-81
2021/01/18 09:31:21;;;;;;;107.00;38.37;;;-10.80;76.00;;;;;;4989721;28;20019;-81
2021/01/18 09:33:47;;;;;;;86.73;35.90;;;-10.80;75.40;;;;;;4975355;28;20376;-81
2021/01/18 09:36:15;;;;;;;116.23;39.57;;;-10.70;74.90;;;;;;4974605;28;20492;-80
2021/01/18 09:38:42;;;;;;;112.47;41.70;;;-10.40;74.70;;;;;;4976088;28;20019;-78
2021/01/18 09:41:08;;;;;;;119.10;39.40;;;-10.40;73.50;;;;;;4976358;28;20488;-80
2021/01/18 09:43:34;;;;;;;104.27;38.67;;;-10.20;73.00;;;;;;4976078;28;20045;-79
2021/01/18 09:46:01;;;;;;;106.80;38.53;;;-10.30;72.20;;;;;;4974800;28;20058;-80
2021/01/18 09:48:27;;;;;;;110.90;39.47;;;-10.30;72.10;;;;;;4976578;28;20035;-79
2021/01/18 09:51:08;;;;;;;137.70;43.73;;;-10.30;72.40;;;;;;4979859;28;20026;-80
2021/01/18 09:53:35;;;;;;;111.90;42.10;;;-10.20;72.50;;;;;;5012306;28;20479;-80
2021/01/18 09:56:07;;;;;;;129.93;42.03;;;-10.10;72.20;;;;;;5012279;28;20038;-80
2021/01/18 09:58:41;;;;;;;99.78;39.17;;;-10.10;71.80;;;;;;5013456;28;20491;-80
2021/01/18 10:01:12;;;;;;;113.90;35.67;;;-10.20;71.80;;;;;;5013345;28;20030;-80
2021/01/18 10:03:40;;;;;;;114.90;37.40;;;-10.20;72.00;;;;;;5012764;28;20030;-80
2021/01/18 10:06:07;;;;;;;103.43;35.07;;;-10.20;72.70;;;;;;5002955;28;20030;-80
2021/01/18 10:08:35;;;;;;;132.63;43.87;;;-10.10;72.80;;;;;;4993449;28;20030;-80
2021/01/18 10:11:00;;;;;;;104.60;40.30;;;-10.20;72.40;;;;;;5007187;28;20042;-80
2021/01/18 10:13:27;;;;;;;101.23;36.93;;;-10.10;73.20;;;;;;5009344;28;20522;-81
2021/01/18 10:15:53;;;;;;;88.53;37.83;;;-10.00;72.90;;;;;;4983777;28;20018;-80
2021/01/18 10:18:39;;;;;;;105.07;35.37;;;-9.80;72.90;;;;;;4975247;28;20046;-80
2021/01/18 10:21:07;;;;;;;106.80;36.73;;;-9.70;71.70;;;;;;4980292;28;20023;-80
2021/01/18 10:23:59;;;;;;;121.63;44.97;;;-9.70;71.10;;;;;;4993423;28;20105;-80
2021/01/18 10:26:26;;;;;;;115.50;42.13;;;-9.60;71.00;;;;;;4990560;28;20034;-80
2021/01/18 10:28:54;;;;;;;112.77;38.93;;;-9.50;70.60;;;;;;4991731;28;20089;-81
2021/01/18 10:31:25;;;;;;;133.50;42.97;;;-9.30;70.30;;;;;;4983729;28;20445;-81
2021/01/18 10:34:29;;;;;;;110.23;39.33;;;-9.20;70.00;;;;;;4992302;28;20058;-80
2021/01/18 10:36:57;;;;;;;113.07;41.30;;;-8.90;68.70;;;;;;4971492;28;20039;-80
2021/01/18 10:39:37;;;;;;;105.10;42.53;;;-8.70;68.10;;;;;;4969932;28;20039;-80
2021/01/18 10:42:08;;;;;;;95.60;41.23;;;-8.70;66.80;;;;;;4977486;28;20379;-80
2021/01/18 10:44:35;;;;;;;102.17;37.10;;;-8.90;66.60;;;;;;4993152;28;20495;-80
2021/01/18 10:47:01;;;;;;;106.50;40.90;;;-8.80;67.10;;;;;;4991584;28;20026;-81
2021/01/18 10:49:28;;;;;;;107.53;39.53;;;-8.90;67.60;;;;;;4990275;28;20030;-80
2021/01/18 10:52:10;;;;;;;101.67;37.43;;;-8.90;67.80;;;;;;4974133;28;20500;-81
2021/01/18 10:54:37;;;;;;;125.37;43.50;;;-8.90;68.40;;;;;;4973487;28;20533;-80
2021/01/18 10:57:19;;;;;;;122.90;48.07;;;-8.80;68.20;;;;;;4973469;28;20034;-80
2021/01/18 10:59:45;;;;;;;107.53;38.60;;;-8.80;68.50;;;;;;4974701;28;20110;-80
2021/01/18 11:02:13;;;;;;;111.97;37.53;;;-8.70;68.80;;;;;;4973430;28;20066;-81
2021/01/18 11:04:46;;;;;;;108.93;41.27;;;-8.80;68.10;;;;;;4973204;28;20473;-80
2021/01/18 11:07:13;;;;;;;105.93;40.80;;;-8.80;68.70;;;;;;4990801;28;20369;-80
2021/01/18 11:09:40;;;;;;;105.87;41.30;;;-8.80;69.20;;;;;;4992501;28;20489;-80
2021/01/18 11:12:07;;;;;;;123.60;44.03;;;-8.70;69.80;;;;;;4992787;28;20023;-80
2021/01/18 11:14:35;;;;;;;115.77;38.90;;;-8.60;69.50;;;;;;4989917;28;20099;-79
2021/01/18 11:17:07;;;;;;;108.60;42.40;;;-8.60;69.40;;;;;;5011594;28;20122;-80
2021/01/18 11:19:33;;;;;;;105.97;38.65;;;-8.60;69.90;;;;;;4994494;28;20310;-81
2021/01/18 11:21:59;;;;;;;108.30;40.60;;;-8.50;70.10;;;;;;4991141;28;20521;-81
2021/01/18 11:24:25;;;;;;;102.27;37.17;;;-8.50;70.10;;;;;;4991237;28;20038;-81
2021/01/18 11:26:52;;;;;;;107.53;40.67;;;-8.50;71.10;;;;;;4988185;28;20046;-81
2021/01/18 11:29:18;;;;;;;112.90;41.50;;;-8.40;71.40;;;;;;5008102;28;20345;-80
2021/01/18 11:31:45;;;;;;;120.43;42.37;;;-8.30;71.60;;;;;;4991503;28;20027;-80
2021/01/18 11:34:12;;;;;;;124.53;40.57;;;-8.20;70.80;;;;;;4991697;28;20146;-80
2021/01/18 11:36:39;;;;;;;123.67;42.07;;;-8.10;71.30;;;;;;4993304;28;20042;-80
2021/01/18 11:39:06;;;;;;;113.57;42.23;;;-8.00;70.40;;;;;;4993666;28;20018;-79
2021/01/18 11:41:33;;;;;;;114.87;42.13;;;-7.90;70.20;;;;;;4992453;28;20156;-79
2021/01/18 11:43:59;;;;;;;114.17;39.27;;;-7.90;69.30;;;;;;5008723;28;20488;-79
2021/01/18 11:46:25;;;;;;;109.77;39.53;;;-7.90;69.70;;;;;;4992359;28;20033;-79
2021/01/18 11:48:50;;;;;;;111.77;39.10;;;-7.80;70.20;;;;;;4992169;28;20495;-80
2021/01/18 11:51:16;;;;;;;118.70;40.30;;;-7.70;70.30;;;;;;4994076;28;20542;-81
2021/01/18 11:53:42;;;;;;;117.03;42.50;;;-7.60;70.00;;;;;;4997697;28;20026;-79
2021/01/18 11:56:07;;;;;;;119.90;43.40;;;-7.70;69.90;;;;;;4995846;28;20050;-81
2021/01/18 11:58:33;;;;;;;99.97;37.03;;;-7.60;70.20;;;;;;4995505;28;20034;-79
2021/01/18 12:00:59;;;;;;;102.87;40.20;;;-7.70;70.00;;;;;;4995986;28;20149;-79
2021/01/18 12:03:25;;;;;;;100.13;39.30;;;-7.80;70.30;;;;;;4996926;28;20026;-79
2021/01/18 12:05:51;;;;;;;91.50;36.23;;;-7.80;70.70;;;;;;4982367;28;20031;-80
2021/01/18 12:08:16;;;;;;;108.67;37.87;;;-7.70;71.90;;;;;;4977914;28;20023;-80
2021/01/18 12:10:43;;;;;;;98.23;38.17;;;-7.60;71.70;;;;;;4992608;28;20029;-80
2021/01/18 12:13:09;;;;;;;102.53;39.13;;;-7.60;71.70;;;;;;4978742;28;20038;-79
2021/01/18 12:15:35;;;;;;;102.70;36.73;;;-7.60;71.60;;;;;;4982200;28;20042;-79
2021/01/18 12:18:01;;;;;;;93.33;36.70;;;-7.70;71.90;;;;;;4982126;28;20113;-79
2021/01/18 12:20:27;;;;;;;89.13;38.23;;;-7.60;72.40;;;;;;4979540;28;20109;-80
2021/01/18 12:22:54;;;;;;;103.43;35.33;;;-7.70;72.70;;;;;;4979921;28;20031;-80
2021/01/18 12:25:20;;;;;;;84.20;35.77;;;-7.60;72.90;;;;;;4981385;28;20019;-79
2021/01/18 12:27:51;;;;;;;82.23;34.03;;;-7.60;73.10;;;;;;4987915;28;20508;-79